Time;durP1;ratioP1;P1;durP2;ratioP2;P2;SDS_P1;SDS_P2;PMS_P1;PMS_P2;Temp;Humidity;BMP_temperature;BMP_pressure;BME280_temperature;BME280_humidity;BME280_pressure;Samples;Min_cycle;Max_cycle;Signal;HPM_P1;HPM_P2
2023/05/05 00:00:12;;;;;;;3.45;1.95;;;;;;;;;;5072904;28;20039;-88
2023/05/05 00:02:45;;;;;;;4.25;2.38;;;;;;;;;;5077460;28;20047;-87
2023/05/05 00:05:17;;;;;;;3.55;1.90;;;;;;;;;;5083054;28;20025;-87
2023/05/05 00:07:45;;;;;;;1.90;1.38;;;;;;;;;;5075585;28;20342;-88
2023/05/05 00:10:11;;;;;;;3.70;1.88;;;;;;;;;;5076718;28;20028;-87
2023/05/05 00:12:37;;;;;;;1.85;1.13;;;;;;;;;;5082504;28;20088;-88
2023/05/05 00:15:06;;;;;;;2.47;1.42;;;;;;;;;;5085299;28;20032;-88
2023/05/05 00:17:31;;;;;;;3.20;1.60;;;;;;;;;;5084652;28;20028;-86
2023/05/05 00:19:58;;;;;;;1.95;1.20;;;;;;;;;;5076800;28;20082;-88
2023/05/05 00:22:26;;;;;;;2.97;1.48;;;;;;;;;;5084018;28;20039;-87
2023/05/05 00:24:56;;;;;;;2.05;1.40;;;;;;;;;;5074286;28;20016;-87
2023/05/05 00:27:27;;;;;;;1.27;1.17;;;;;;;;;;5086990;28;20028;-87
2023/05/05 00:29:52;;;;;;;2.15;1.95;;;;;;;;;;5070030;28;20032;-89
2023/05/05 00:32:23;;;;;;;24.13;2.95;;;;;;;;;;5080265;28;20073;-88
2023/05/05 00:34:51;;;;;;;4.75;1.45;;;;;;;;;;5074570;28;20380;-86
2023/05/05 00:37:17;;;;;;;5.32;1.75;;;;;;;;;;5076648;28;20043;-86
2023/05/05 00:39:43;;;;;;;2.72;1.67;;;;;;;;;;5114587;27;20024;-87
2023/05/05 00:42:09;;;;;;;2.22;1.45;;;;;;;;;;5083079;28;20488;-88
2023/05/05 00:44:38;;;;;;;2.40;1.48;;;;;;;;;;5081404;28;20023;-88
2023/05/05 00:47:04;;;;;;;3.83;2.20;;;;;;;;;;5078378;28;20044;-87
2023/05/05 00:49:38;;;;;;;8.52;2.05;;;;;;;;;;5081284;28;20043;-88
2023/05/05 00:52:11;;;;;;;5.68;2.88;;;;;;;;;;5085221;28;20045;-88
2023/05/05 00:54:37;;;;;;;2.22;1.50;;;;;;;;;;5078438;28;20035;-87
2023/05/05 00:57:03;;;;;;;3.03;2.08;;;;;;;;;;5071800;28;20024;-88
2023/05/05 00:59:35;;;;;;;2.47;1.60;;;;;;;;;;5078814;28;20073;-88
2023/05/05 01:02:01;;;;;;;1.88;1.55;;;;;;;;;;5077827;28;20028;-85
2023/05/05 01:04:29;;;;;;;4.57;2.25;;;;;;;;;;5075554;28;20074;-86
2023/05/05 01:07:07;;;;;;;3.30;1.88;;;;;;;;;;5081145;28;20036;-86
2023/05/05 01:09:41;;;;;;;3.13;1.70;;;;;;;;;;5073910;28;20047;-90
2023/05/05 01:12:44;;;;;;;3.88;2.08;;;;;;;;;;5120324;27;20043;-88
2023/05/05 01:15:18;;;;;;;5.40;1.67;;;;;;;;;;5077752;28;20043;-88
2023/05/05 01:18:08;;;;;;;2.15;1.40;;;;;;;;;;5076841;28;20409;-89
2023/05/05 01:20:45;;;;;;;2.65;1.65;;;;;;;;;;5084053;28;20028;-89
2023/05/05 01:23:42;;;;;;;3.13;1.50;;;;;;;;;;5080725;28;20495;-88
2023/05/05 01:26:30;;;;;;;2.47;1.63;;;;;;;;;;5046246;28;20047;-89
2023/05/05 01:29:18;;;;;;;2.50;1.90;;;;;;;;;;5086764;28;20028;-89
2023/05/05 01:32:01;;;;;;;3.80;2.38;;;;;;;;;;5071861;28;20127;-88
2023/05/05 01:34:39;;;;;;;3.20;2.15;;;;;;;;;;5080259;28;20404;-88
2023/05/05 01:37:12;;;;;;;4.43;2.45;;;;;;;;;;5084251;28;20534;-88
2023/05/05 01:39:49;;;;;;;2.90;1.80;;;;;;;;;;5078638;28;20024;-89
2023/05/05 01:42:25;;;;;;;2.90;1.73;;;;;;;;;;5082512;28;20428;-87
2023/05/05 01:45:06;;;;;;;3.67;2.22;;;;;;;;;;5083776;28;20028;-89
2023/05/05 01:47:52;;;;;;;4.03;2.08;;;;;;;;;;5085837;28;20404;-85
2023/05/05 01:50:19;;;;;;;2.63;1.60;;;;;;;;;;5079335;28;20028;-86
2023/05/05 01:52:49;;;;;;;4.28;2.03;;;;;;;;;;5087537;28;20051;-89
2023/05/05 01:55:23;;;;;;;3.13;1.83;;;;;;;;;;5080236;28;20032;-87
2023/05/05 01:57:50;;;;;;;5.75;2.25;;;;;;;;;;5076073;28;20029;-86
2023/05/05 02:00:18;;;;;;;3.85;2.47;;;;;;;;;;5082017;28;20058;-87
2023/05/05 02:02:46;;;;;;;3.47;2.10;;;;;;;;;;5078968;28;20024;-86
2023/05/05 02:05:15;;;;;;;3.90;1.95;;;;;;;;;;5074039;28;20029;-88
2023/05/05 02:07:45;;;;;;;3.60;2.50;;;;;;;;;;5082443;28;20044;-86
2023/05/05 02:10:15;;;;;;;;;;;;;;;;;;5073622;28;20035;-88
2023/05/05 02:12:44;;;;;;;3.75;1.60;;;;;;;;;;5079172;28;19920;-85
2023/05/05 02:15:11;;;;;;;3.80;2.15;;;;;;;;;;5078118;28;20020;-87
2023/05/05 02:17:41;;;;;;;3.63;1.75;;;;;;;;;;5076474;28;20030;-87
2023/05/05 02:20:12;;;;;;;2.33;1.52;;;;;;;;;;5084885;28;20097;-88
2023/05/05 02:22:39;;;;;;;2.85;1.83;;;;;;;;;;5075330;28;20039;-86
2023/05/05 02:25:05;;;;;;;2.60;1.33;;;;;;;;;;5083329;28;20975;-87
2023/05/05 02:27:33;;;;;;;2.85;1.60;;;;;;;;;;5086576;28;20028;-87
2023/05/05 02:30:11;;;;;;;2.33;1.50;;;;;;;;;;5077154;28;20028;-86
2023/05/05 02:32:45;;;;;;;2.00;1.50;;;;;;;;;;5079756;28;20024;-87
2023/05/05 02:35:19;;;;;;;2.70;1.50;;;;;;;;;;5086008;28;20057;-86
2023/05/05 02:38:04;;;;;;;2.75;1.42;;;;;;;;;;5118297;27;20024;-88
2023/05/05 02:40:33;;;;;;;3.28;1.88;;;;;;;;;;5077235;28;20407;-87
2023/05/05 02:43:08;;;;;;;2.65;1.38;;;;;;;;;;5082354;28;20027;-87
2023/05/05 02:46:14;;;;;;;1.83;1.23;;;;;;;;;;5085459;28;20028;-88
2023/05/05 02:48:46;;;;;;;2.58;1.63;;;;;;;;;;5079894;28;20071;-87
2023/05/05 02:51:24;;;;;;;3.65;2.13;;;;;;;;;;5109688;27;20064;-88
2023/05/05 02:53:51;;;;;;;2.67;1.52;;;;;;;;;;5085608;28;20077;-88
2023/05/05 02:56:53;;;;;;;3.60;1.80;;;;;;;;;;5072223;28;20039;-88
2023/05/05 02:59:31;;;;;;;4.82;2.45;;;;;;;;;;5079693;28;20056;-91
2023/05/05 03:02:24;;;;;;;1.95;1.70;;;;;;;;;;5082122;28;20044;-90
2023/05/05 03:05:11;;;;;;;1.83;1.38;;;;;;;;;;5079763;28;20016;-86
2023/05/05 03:07:55;;;;;;;3.25;2.03;;;;;;;;;;5080501;28;20092;-88
2023/05/05 03:10:30;;;;;;;2.28;1.58;;;;;;;;;;5079204;28;20032;-87
2023/05/05 03:13:00;;;;;;;2.65;1.38;;;;;;;;;;5080725;28;20033;-89
2023/05/05 03:15:36;;;;;;;2.00;1.42;;;;;;;;;;5081701;28;20031;-86
2023/05/05 03:18:06;;;;;;;4.50;2.40;;;;;;;;;;5072976;28;20070;-88
2023/05/05 03:20:36;;;;;;;;;;;;;;;;;;5084713;28;20475;-86
2023/05/05 03:23:12;;;;;;;2.78;1.55;;;;;;;;;;5082596;28;20421;-86
2023/05/05 03:25:51;;;;;;;6.80;1.95;;;;;;;;;;5083791;28;20103;-89
2023/05/05 03:28:19;;;;;;;2.47;1.63;;;;;;;;;;5082306;28;20028;-87
2023/05/05 03:30:53;;;;;;;3.05;1.65;;;;;;;;;;5076794;28;20059;-88
2023/05/05 03:33:21;;;;;;;2.70;1.90;;;;;;;;;;5081987;28;20431;-86
2023/05/05 03:36:00;;;;;;;1.88;1.33;;;;;;;;;;5083496;28;20032;-87
2023/05/05 03:38:26;;;;;;;1.45;1.15;;;;;;;;;;5084183;28;20032;-88
2023/05/05 03:41:01;;;;;;;2.38;1.38;;;;;;;;;;5082383;28;20115;-87
2023/05/05 03:43:45;;;;;;;;;;;;;;;;;;;;;
2023/05/05 03:46:14;;;;;;;1.65;1.27;;;;;;;;;;5079540;28;20526;-88
2023/05/05 03:48:45;;;;;;;5.43;1.92;;;;;;;;;;5076756;28;20029;-88
2023/05/05 03:51:12;;;;;;;2.83;1.92;;;;;;;;;;5071656;28;20020;-86
2023/05/05 03:53:40;;;;;;;1.90;1.13;;;;;;;;;;5080627;28;20025;-87
2023/05/05 03:56:09;;;;;;;1.90;1.25;;;;;;;;;;5086547;28;20028;-87
2023/05/05 03:59:00;;;;;;;1.38;0.98;;;;;;;;;;5080350;28;20039;-88
2023/05/05 04:01:28;;;;;;;2.30;1.20;;;;;;;;;;5085474;28;20063;-88
2023/05/05 04:03:55;;;;;;;2.70;1.60;;;;;;;;;;5102140;28;20041;-87
2023/05/05 04:06:26;;;;;;;1.88;1.40;;;;;;;;;;5082452;28;20053;-88
2023/05/05 04:08:55;;;;;;;1.40;1.20;;;;;;;;;;5075494;28;20028;-87
2023/05/05 04:11:25;;;;;;;3.30;1.58;;;;;;;;;;5081740;28;20124;-86
2023/05/05 04:13:56;;;;;;;0.77;0.77;;;;;;;;;;5076891;28;20154;-87
2023/05/05 04:16:52;;;;;;;1.58;0.90;;;;;;;;;;5078707;28;20024;-89
2023/05/05 04:19:17;;;;;;;2.70;1.38;;;;;;;;;;5080523;28;20086;-86
2023/05/05 04:21:52;;;;;;;3.05;1.88;;;;;;;;;;5084300;28;20599;-89
2023/05/05 04:24:23;;;;;;;1.35;0.90;;;;;;;;;;5073968;28;20044;-88
2023/05/05 04:26:49;;;;;;;2.22;1.38;;;;;;;;;;5080830;28;20053;-87
2023/05/05 04:29:53;;;;;;;1.98;1.20;;;;;;;;;;5079696;28;20020;-88
2023/05/05 04:32:29;;;;;;;1.75;1.05;;;;;;;;;;5113742;27;20039;-88
2023/05/05 04:34:55;;;;;;;1.75;1.30;;;;;;;;;;5074616;28;20082;-88
2023/05/05 04:37:21;;;;;;;2.30;1.25;;;;;;;;;;5083837;28;20040;-87
2023/05/05 04:39:52;;;;;;;6.25;2.33;;;;;;;;;;5080269;28;20040;-87
2023/05/05 04:42:25;;;;;;;4.82;2.45;;;;;;;;;;5083322;28;20119;-87
2023/05/05 04:44:54;;;;;;;4.25;2.22;;;;;;;;;;5081183;28;20387;-86
2023/05/05 04:47:26;;;;;;;2.92;1.73;;;;;;;;;;5087171;28;20028;-88
2023/05/05 04:50:23;;;;;;;5.05;2.40;;;;;;;;;;5087057;28;20039;-88
2023/05/05 04:52:51;;;;;;;3.75;2.08;;;;;;;;;;5037630;28;20032;-86
2023/05/05 04:55:30;;;;;;;4.45;2.78;;;;;;;;;;5080607;28;20452;-87
2023/05/05 04:58:26;;;;;;;4.93;2.85;;;;;;;;;;5081945;28;20062;-86
2023/05/05 05:00:52;;;;;;;4.00;3.00;;;;;;;;;;5069556;28;20050;-87
2023/05/05 05:03:17;;;;;;;8.25;3.50;;;;;;;;;;5081344;28;20375;-87
2023/05/05 05:05:42;;;;;;;4.60;2.72;;;;;;;;;;5080392;28;20559;-86
2023/05/05 05:08:08;;;;;;;5.07;2.55;;;;;;;;;;5081071;28;20042;-87
2023/05/05 05:10:34;;;;;;;5.13;3.40;;;;;;;;;;5079286;28;20039;-87
2023/05/05 05:13:00;;;;;;;5.03;2.92;;;;;;;;;;5082090;28;20537;-87
2023/05/05 05:15:28;;;;;;;2.92;2.00;;;;;;;;;;5080392;28;20028;-86
2023/05/05 05:17:54;;;;;;;3.63;2.25;;;;;;;;;;5081224;28;20028;-88
2023/05/05 05:20:19;;;;;;;3.55;2.25;;;;;;;;;;5081644;28;20035;-86
2023/05/05 05:22:45;;;;;;;2.80;1.45;;;;;;;;;;5077340;28;20020;-87
2023/05/05 05:25:10;;;;;;;3.03;1.75;;;;;;;;;;5079849;28;20379;-89
2023/05/05 05:27:35;;;;;;;5.43;1.98;;;;;;;;;;5078042;28;20024;-87
2023/05/05 05:30:02;;;;;;;1.77;1.30;;;;;;;;;;5082295;28;20092;-88
2023/05/05 05:32:27;;;;;;;1.92;1.20;;;;;;;;;;5079070;28;20027;-86
2023/05/05 05:34:53;;;;;;;3.05;1.80;;;;;;;;;;5076450;28;20040;-88
2023/05/05 05:37:18;;;;;;;2.47;1.50;;;;;;;;;;5076196;28;20067;-88
2023/05/05 05:39:50;;;;;;;1.45;0.90;;;;;;;;;;5071848;28;20031;-87
2023/05/05 05:42:15;;;;;;;1.25;0.98;;;;;;;;;;5080445;28;20043;-90
2023/05/05 05:44:41;;;;;;;1.67;1.02;;;;;;;;;;5077882;28;20020;-88
2023/05/05 05:47:06;;;;;;;1.25;0.85;;;;;;;;;;5080413;28;20056;-87
2023/05/05 05:49:32;;;;;;;2.00;0.85;;;;;;;;;;5080381;28;20035;-88
2023/05/05 05:51:57;;;;;;;0.80;0.68;;;;;;;;;;5079149;28;20024;-92
2023/05/05 05:54:22;;;;;;;2.88;1.30;;;;;;;;;;5081078;28;20095;-86
2023/05/05 05:56:48;;;;;;;1.80;0.80;;;;;;;;;;5074094;28;20016;-89
2023/05/05 05:59:13;;;;;;;1.30;0.90;;;;;;;;;;5076033;28;20037;-86
2023/05/05 06:01:39;;;;;;;0.60;0.60;;;;;;;;;;5073758;28;20782;-87
2023/05/05 06:04:04;;;;;;;1.85;1.25;;;;;;;;;;5069305;28;20025;-87
2023/05/05 06:06:30;;;;;;;3.80;0.95;;;;;;;;;;5081181;28;20028;-87
2023/05/05 06:08:55;;;;;;;2.22;1.02;;;;;;;;;;5083926;28;20139;-87
2023/05/05 06:11:21;;;;;;;1.38;0.75;;;;;;;;;;5088136;28;20032;-86
2023/05/05 06:13:46;;;;;;;2.08;1.20;;;;;;;;;;5084005;28;20096;-85
2023/05/05 06:16:15;;;;;;;2.22;1.30;;;;;;;;;;5081650;28;20108;-85
2023/05/05 06:18:40;;;;;;;1.83;1.05;;;;;;;;;;5078504;28;20468;-85
2023/05/05 06:21:06;;;;;;;1.65;1.20;;;;;;;;;;5080727;28;20028;-86
2023/05/05 06:23:31;;;;;;;1.52;0.90;;;;;;;;;;5082829;28;20072;-89
2023/05/05 06:25:56;;;;;;;3.20;1.50;;;;;;;;;;5082219;28;20036;-86
2023/05/05 06:28:22;;;;;;;2.40;0.98;;;;;;;;;;5076745;28;20491;-86
2023/05/05 06:30:47;;;;;;;2.45;1.23;;;;;;;;;;5085296;28;20036;-87
2023/05/05 06:33:13;;;;;;;4.93;1.95;;;;;;;;;;5075477;28;20038;-86
2023/05/05 06:35:38;;;;;;;1.23;1.00;;;;;;;;;;5086024;28;20093;-87
2023/05/05 06:38:03;;;;;;;4.05;1.45;;;;;;;;;;5083261;28;20050;-87
2023/05/05 06:40:29;;;;;;;1.65;0.90;;;;;;;;;;5081201;28;20055;-86
2023/05/05 06:42:55;;;;;;;2.00;1.02;;;;;;;;;;5077595;28;20115;-86
2023/05/05 06:45:20;;;;;;;2.30;1.33;;;;;;;;;;5077834;28;20390;-83
2023/05/05 06:47:46;;;;;;;1.92;1.27;;;;;;;;;;5079182;28;20079;-84
2023/05/05 06:50:11;;;;;;;1.65;1.20;;;;;;;;;;5083058;28;20545;-85
2023/05/05 06:52:36;;;;;;;1.80;1.40;;;;;;;;;;5078206;28;20031;-88
2023/05/05 06:55:03;;;;;;;2.05;1.10;;;;;;;;;;5079541;28;20067;-88
2023/05/05 06:57:28;;;;;;;2.67;1.02;;;;;;;;;;5077677;28;20487;-92
2023/05/05 06:59:54;;;;;;;2.83;1.25;;;;;;;;;;5082194;28;20032;-89
2023/05/05 07:02:20;;;;;;;2.95;1.25;;;;;;;;;;5076484;28;20023;-90
2023/05/05 07:04:45;;;;;;;2.15;1.15;;;;;;;;;;5086519;28;20024;-89
2023/05/05 07:07:11;;;;;;;2.35;1.20;;;;;;;;;;5079544;28;20024;-87
2023/05/05 07:09:36;;;;;;;4.43;1.80;;;;;;;;;;5079167;28;20059;-87
2023/05/05 07:12:02;;;;;;;1.60;1.27;;;;;;;;;;5071551;28;20044;-83
2023/05/05 07:14:27;;;;;;;2.28;1.15;;;;;;;;;;5076286;28;20891;-86
2023/05/05 07:16:53;;;;;;;2.65;1.65;;;;;;;;;;5076200;28;20035;-82
2023/05/05 07:19:18;;;;;;;3.38;1.35;;;;;;;;;;5077487;28;20452;-84
2023/05/05 07:21:44;;;;;;;1.75;1.08;;;;;;;;;;5080080;28;20123;-83
2023/05/05 07:24:09;;;;;;;5.28;1.45;;;;;;;;;;5079050;28;20046;-86
2023/05/05 07:26:35;;;;;;;2.22;1.10;;;;;;;;;;5076942;28;20037;-86
2023/05/05 07:29:01;;;;;;;2.20;1.42;;;;;;;;;;5072987;28;20032;-84
2023/05/05 07:31:26;;;;;;;1.73;1.10;;;;;;;;;;5069642;28;20039;-82
2023/05/05 07:33:52;;;;;;;2.17;1.20;;;;;;;;;;5083461;28;20020;-85
2023/05/05 07:36:17;;;;;;;2.30;1.20;;;;;;;;;;5075030;28;20032;-85
2023/05/05 07:38:43;;;;;;;2.28;1.00;;;;;;;;;;5077381;28;20035;-87
2023/05/05 07:41:10;;;;;;;2.10;1.50;;;;;;;;;;5082229;28;20035;-87
2023/05/05 07:43:36;;;;;;;1.83;1.30;;;;;;;;;;5076805;28;20081;-88
2023/05/05 07:46:02;;;;;;;2.22;1.50;;;;;;;;;;5078086;28;20571;-86
2023/05/05 07:48:28;;;;;;;2.72;1.45;;;;;;;;;;5080292;28;20028;-87
2023/05/05 07:50:54;;;;;;;2.90;1.80;;;;;;;;;;5081541;28;20440;-88
2023/05/05 07:53:20;;;;;;;4.00;1.70;;;;;;;;;;5076307;28;20086;-88
2023/05/05 07:55:45;;;;;;;1.90;1.10;;;;;;;;;;5080017;28;20024;-88
2023/05/05 07:58:10;;;;;;;3.10;2.05;;;;;;;;;;5085933;28;20488;-86
2023/05/05 08:00:36;;;;;;;4.00;1.55;;;;;;;;;;5078549;28;20070;-87
2023/05/05 08:03:02;;;;;;;3.63;1.63;;;;;;;;;;5082340;28;20025;-83
2023/05/05 08:05:27;;;;;;;3.70;1.20;;;;;;;;;;5072659;28;20021;-83
2023/05/05 08:07:53;;;;;;;3.00;1.50;;;;;;;;;;5077949;28;20043;-86
2023/05/05 08:10:20;;;;;;;2.80;1.48;;;;;;;;;;5079180;28;20020;-84
2023/05/05 08:12:46;;;;;;;2.13;1.20;;;;;;;;;;5074407;28;20025;-86
2023/05/05 08:15:11;;;;;;;2.22;1.08;;;;;;;;;;5075491;28;20030;-84
2023/05/05 08:17:50;;;;;;;1.27;0.98;;;;;;;;;;5086493;28;20078;-84
2023/05/05 08:20:17;;;;;;;2.53;1.25;;;;;;;;;;5072814;28;20024;-85
2023/05/05 08:22:43;;;;;;;2.42;1.52;;;;;;;;;;5078935;28;20476;-82
2023/05/05 08:25:09;;;;;;;2.75;1.58;;;;;;;;;;5077310;28;20078;-86
2023/05/05 08:27:37;;;;;;;2.60;1.42;;;;;;;;;;5082565;28;20388;-84
2023/05/05 08:30:03;;;;;;;3.55;1.75;;;;;;;;;;5068845;28;20028;-88
2023/05/05 08:32:32;;;;;;;3.15;1.02;;;;;;;;;;5084667;28;20456;-88
2023/05/05 08:34:57;;;;;;;0.65;0.60;;;;;;;;;;5073358;28;20033;-87
2023/05/05 08:37:23;;;;;;;1.73;1.00;;;;;;;;;;5073140;28;20507;-88
2023/05/05 08:39:48;;;;;;;1.00;0.73;;;;;;;;;;5075300;28;20023;-85
2023/05/05 08:42:14;;;;;;;2.10;1.38;;;;;;;;;;5075401;28;20069;-84
2023/05/05 08:44:40;;;;;;;1.90;1.10;;;;;;;;;;5076802;28;20073;-86
2023/05/05 08:47:09;;;;;;;6.60;1.10;;;;;;;;;;5082497;28;20031;-86
2023/05/05 08:49:43;;;;;;;2.50;1.02;;;;;;;;;;5075693;28;20047;-90
2023/05/05 08:52:17;;;;;;;2.97;1.40;;;;;;;;;;5073900;28;20043;-89
2023/05/05 08:54:53;;;;;;;3.95;1.35;;;;;;;;;;5083677;28;20024;-84
2023/05/05 08:57:33;;;;;;;1.63;1.25;;;;;;;;;;5078878;28;20020;-84
2023/05/05 09:00:01;;;;;;;4.15;1.40;;;;;;;;;;5080259;28;20103;-83
2023/05/05 09:02:29;;;;;;;1.70;1.17;;;;;;;;;;5074380;28;20024;-89
2023/05/05 09:04:55;;;;;;;1.80;1.27;;;;;;;;;;5079223;28;20407;-87
2023/05/05 09:07:21;;;;;;;3.17;1.20;;;;;;;;;;5080763;28;20081;-86
2023/05/05 09:09:48;;;;;;;1.33;0.95;;;;;;;;;;5078680;28;20036;-85
2023/05/05 09:12:16;;;;;;;1.00;0.70;;;;;;;;;;5073856;28;20052;-84
2023/05/05 09:14:42;;;;;;;2.25;1.40;;;;;;;;;;5075884;28;20047;-81
2023/05/05 09:17:22;;;;;;;3.17;1.63;;;;;;;;;;5076654;28;20032;-85
2023/05/05 09:20:08;;;;;;;1.55;0.80;;;;;;;;;;5076179;28;20052;-87
2023/05/05 09:22:46;;;;;;;1.67;1.08;;;;;;;;;;5080710;28;20032;-87
2023/05/05 09:25:16;;;;;;;2.15;1.23;;;;;;;;;;5069056;28;20036;-83
2023/05/05 09:27:54;;;;;;;1.67;1.15;;;;;;;;;;5069545;28;20058;-80
2023/05/05 09:30:24;;;;;;;1.50;0.95;;;;;;;;;;5097859;28;20447;-84
2023/05/05 09:32:53;;;;;;;1.55;1.10;;;;;;;;;;5074940;28;20020;-86
2023/05/05 09:35:22;;;;;;;2.00;1.38;;;;;;;;;;5077755;28;20040;-87
2023/05/05 09:37:51;;;;;;;2.53;1.15;;;;;;;;;;5072400;28;20498;-86
2023/05/05 09:40:22;;;;;;;3.35;1.88;;;;;;;;;;5077977;28;20020;-86
2023/05/05 09:43:00;;;;;;;1.80;1.05;;;;;;;;;;5080143;28;20067;-86
2023/05/05 09:45:29;;;;;;;1.05;0.98;;;;;;;;;;5076910;28;20541;-86
2023/05/05 09:47:55;;;;;;;3.15;1.27;;;;;;;;;;5081061;28;20060;-85
2023/05/05 09:50:22;;;;;;;1.60;1.27;;;;;;;;;;5084642;28;20050;-86
2023/05/05 09:53:01;;;;;;;4.32;1.38;;;;;;;;;;5071769;28;20020;-83
2023/05/05 09:55:30;;;;;;;1.00;0.80;;;;;;;;;;5074116;28;20040;-83
2023/05/05 09:58:18;;;;;;;1.35;0.93;;;;;;;;;;5080627;28;20036;-86
2023/05/05 10:00:54;;;;;;;2.17;1.30;;;;;;;;;;5071338;28;20024;-84
2023/05/05 10:03:30;;;;;;;2.70;1.38;;;;;;;;;;5076789;28;20480;-85
2023/05/05 10:05:58;;;;;;;1.70;1.27;;;;;;;;;;5076807;28;20043;-84
2023/05/05 10:08:29;;;;;;;3.90;1.25;;;;;;;;;;5076410;28;20031;-82
2023/05/05 10:10:59;;;;;;;2.63;1.40;;;;;;;;;;5076434;28;20025;-81
2023/05/05 10:13:25;;;;;;;3.42;1.48;;;;;;;;;;5086719;28;20407;-84
2023/05/05 10:15:56;;;;;;;7.97;1.50;;;;;;;;;;5076998;28;20035;-83
2023/05/05 10:18:32;;;;;;;1.77;1.00;;;;;;;;;;5079214;28;20039;-86
2023/05/05 10:21:00;;;;;;;1.80;1.30;;;;;;;;;;5080966;28;20028;-83
2023/05/05 10:23:40;;;;;;;4.80;1.30;;;;;;;;;;5079762;28;20041;-84
2023/05/05 10:26:12;;;;;;;1.73;1.30;;;;;;;;;;5079736;28;20178;-85
2023/05/05 10:28:44;;;;;;;1.42;1.10;;;;;;;;;;5076800;28;20103;-82
2023/05/05 10:31:34;;;;;;;2.30;1.38;;;;;;;;;;5074628;28;20064;-82
2023/05/05 10:34:04;;;;;;;1.92;1.40;;;;;;;;;;5082293;28;20036;-82
2023/05/05 10:36:30;;;;;;;2.42;1.20;;;;;;;;;;5084332;28;20060;-84
2023/05/05 10:38:57;;;;;;;3.58;1.98;;;;;;;;;;5077242;28;20055;-84
2023/05/05 10:41:24;;;;;;;3.97;1.55;;;;;;;;;;5117776;27;20024;-83
2023/05/05 10:43:51;;;;;;;2.60;1.65;;;;;;;;;;5077359;28;20045;-84
2023/05/05 10:46:17;;;;;;;4.95;1.17;;;;;;;;;;5081997;28;20028;-84
2023/05/05 10:48:42;;;;;;;1.92;1.23;;;;;;;;;;5075913;28;20025;-82
2023/05/05 10:51:25;;;;;;;2.13;1.02;;;;;;;;;;5076170;28;20032;-84
2023/05/05 10:53:59;;;;;;;2.42;1.27;;;;;;;;;;5071699;28;20476;-86
2023/05/05 10:56:33;;;;;;;2.42;1.05;;;;;;;;;;5072638;28;20076;-82
2023/05/05 10:58:59;;;;;;;2.00;1.30;;;;;;;;;;5074374;28;20081;-84
2023/05/05 11:01:34;;;;;;;3.90;1.30;;;;;;;;;;5078271;28;20036;-82
2023/05/05 11:04:20;;;;;;;4.15;1.30;;;;;;;;;;5074477;28;20110;-85
2023/05/05 11:07:07;;;;;;;1.83;1.30;;;;;;;;;;5078940;28;20477;-83
2023/05/05 11:09:40;;;;;;;1.55;0.80;;;;;;;;;;5082166;28;20479;-82
2023/05/05 11:12:07;;;;;;;1.65;1.10;;;;;;;;;;5082481;28;20029;-83
2023/05/05 11:14:33;;;;;;;2.80;1.45;;;;;;;;;;5080000;28;20748;-81
2023/05/05 11:16:58;;;;;;;2.80;1.60;;;;;;;;;;5087768;28;20024;-82
2023/05/05 11:19:42;;;;;;;2.20;1.10;;;;;;;;;;5077876;28;20036;-80
2023/05/05 11:22:08;;;;;;;4.53;1.48;;;;;;;;;;5082690;28;20080;-81
2023/05/05 11:24:35;;;;;;;1.38;0.95;;;;;;;;;;5076958;28;20376;-83
2023/05/05 11:27:01;;;;;;;3.10;1.45;;;;;;;;;;5075282;28;20036;-82
2023/05/05 11:29:26;;;;;;;2.40;1.20;;;;;;;;;;5075083;28;20040;-83
2023/05/05 11:32:12;;;;;;;1.25;0.85;;;;;;;;;;5081022;28;20388;-83
2023/05/05 11:34:48;;;;;;;3.17;1.23;;;;;;;;;;5065009;28;20051;-84
2023/05/05 11:37:15;;;;;;;1.73;1.08;;;;;;;;;;5077767;28;20037;-84
2023/05/05 11:39:52;;;;;;;2.45;1.23;;;;;;;;;;5077612;28;20049;-83
2023/05/05 11:42:27;;;;;;;2.13;1.10;;;;;;;;;;5080089;28;20096;-83
2023/05/05 11:44:53;;;;;;;1.95;1.30;;;;;;;;;;5080964;28;20016;-81
2023/05/05 11:47:19;;;;;;;1.08;0.77;;;;;;;;;;5076515;28;20073;-84
2023/05/05 11:49:44;;;;;;;2.75;1.20;;;;;;;;;;5074548;28;20033;-83
2023/05/05 11:52:13;;;;;;;1.83;1.05;;;;;;;;;;5076960;28;20024;-83
2023/05/05 11:54:41;;;;;;;1.43;0.87;;;;;;;;;;5083000;28;20433;-86
2023/05/05 11:57:07;;;;;;;4.18;1.50;;;;;;;;;;5082433;28;20488;-82
2023/05/05 12:00:00;;;;;;;1.73;1.30;;;;;;;;;;5077695;28;20030;-84
2023/05/05 12:02:28;;;;;;;2.40;1.23;;;;;;;;;;5079888;28;20085;-83
2023/05/05 12:04:54;;;;;;;2.05;0.93;;;;;;;;;;5076730;28;20484;-84
2023/05/05 12:07:24;;;;;;;2.13;1.00;;;;;;;;;;5078538;28;20021;-82
2023/05/05 12:09:50;;;;;;;1.42;0.80;;;;;;;;;;5081289;28;20061;-82
2023/05/05 12:12:16;;;;;;;2.72;1.00;;;;;;;;;;5080066;28;20036;-82
2023/05/05 12:14:46;;;;;;;1.95;1.15;;;;;;;;;;5074154;28;20021;-84
2023/05/05 12:17:11;;;;;;;;;;;;;;;;;;5077618;28;20027;-83
2023/05/05 12:19:44;;;;;;;3.78;1.92;;;;;;;;;;5081665;28;20627;-83
2023/05/05 12:22:16;;;;;;;1.67;1.33;;;;;;;;;;5076342;28;20030;-85
2023/05/05 12:24:41;;;;;;;1.95;0.93;;;;;;;;;;5076566;28;20019;-83
2023/05/05 12:27:08;;;;;;;2.03;1.08;;;;;;;;;;5083573;28;20194;-87
2023/05/05 12:29:33;;;;;;;6.47;1.15;;;;;;;;;;5075285;28;20103;-84
2023/05/05 12:31:59;;;;;;;1.92;1.38;;;;;;;;;;5080531;28;20115;-83
2023/05/05 12:34:25;;;;;;;2.10;1.00;;;;;;;;;;5076794;28;20454;-84
2023/05/05 12:36:50;;;;;;;1.13;0.95;;;;;;;;;;5082249;28;20054;-84
2023/05/05 12:39:16;;;;;;;0.93;0.82;;;;;;;;;;5081730;28;20024;-83
2023/05/05 12:41:42;;;;;;;1.52;0.90;;;;;;;;;;5078414;28;20028;-85
2023/05/05 12:44:07;;;;;;;1.50;1.27;;;;;;;;;;5076729;28;20032;-84
2023/05/05 12:46:46;;;;;;;1.55;0.93;;;;;;;;;;5069340;28;20075;-82
2023/05/05 12:49:12;;;;;;;1.73;1.30;;;;;;;;;;5080534;28;20024;-84
2023/05/05 12:51:38;;;;;;;4.40;0.90;;;;;;;;;;5085570;28;20126;-85
2023/05/05 12:54:11;;;;;;;3.20;1.20;;;;;;;;;;5074267;28;20029;-82
2023/05/05 12:56:41;;;;;;;3.15;1.35;;;;;;;;;;5083589;28;20082;-84
2023/05/05 12:59:11;;;;;;;4.03;2.17;;;;;;;;;;5077167;28;20115;-84
2023/05/05 13:01:53;;;;;;;2.03;0.93;;;;;;;;;;5076046;28;20441;-84
2023/05/05 13:04:20;;;;;;;1.95;1.35;;;;;;;;;;5071606;28;20028;-83
2023/05/05 13:06:48;;;;;;;1.77;1.02;;;;;;;;;;5080471;28;20035;-83
2023/05/05 13:09:29;;;;;;;2.55;1.10;;;;;;;;;;5084535;28;20024;-84
2023/05/05 13:11:55;;;;;;;1.60;1.08;;;;;;;;;;5071542;28;20024;-82
2023/05/05 13:14:21;;;;;;;3.63;1.45;;;;;;;;;;5077365;28;20413;-82
2023/05/05 13:16:47;;;;;;;1.63;1.17;;;;;;;;;;5069997;28;20028;-83
2023/05/05 13:19:12;;;;;;;1.42;0.90;;;;;;;;;;5072485;28;20161;-84
2023/05/05 13:21:38;;;;;;;1.27;0.93;;;;;;;;;;5064715;28;20488;-83
2023/05/05 13:24:04;;;;;;;1.50;0.90;;;;;;;;;;5085685;28;20016;-83
2023/05/05 13:26:30;;;;;;;2.70;1.25;;;;;;;;;;5082366;28;20044;-82
2023/05/05 13:28:56;;;;;;;1.85;1.02;;;;;;;;;;5075493;28;20031;-85
2023/05/05 13:31:21;;;;;;;1.58;0.77;;;;;;;;;;5074069;28;20438;-83
2023/05/05 13:33:47;;;;;;;3.00;1.10;;;;;;;;;;5074234;28;20028;-85
2023/05/05 13:36:12;;;;;;;3.10;0.82;;;;;;;;;;5080464;28;20036;-84
2023/05/05 13:38:38;;;;;;;1.20;0.80;;;;;;;;;;5079080;28;20090;-86
2023/05/05 13:41:03;;;;;;;0.98;0.90;;;;;;;;;;5078319;28;20032;-83
2023/05/05 13:43:28;;;;;;;1.25;0.93;;;;;;;;;;5076742;28;20024;-84
2023/05/05 13:45:54;;;;;;;1.63;1.08;;;;;;;;;;5076610;28;20064;-83
2023/05/05 13:48:20;;;;;;;7.57;1.40;;;;;;;;;;5074431;28;20107;-84
2023/05/05 13:50:46;;;;;;;6.03;1.20;;;;;;;;;;5080801;28;20481;-85
2023/05/05 13:53:11;;;;;;;2.33;1.20;;;;;;;;;;5075252;28;20020;-84
2023/05/05 13:55:37;;;;;;;0.95;0.80;;;;;;;;;;5082305;28;20495;-85
2023/05/05 13:58:02;;;;;;;1.88;1.10;;;;;;;;;;5086104;28;20100;-85
2023/05/05 14:00:27;;;;;;;1.80;0.90;;;;;;;;;;5082000;28;20095;-83
2023/05/05 14:02:53;;;;;;;1.75;1.00;;;;;;;;;;5075816;28;20082;-83
2023/05/05 14:05:20;;;;;;;1.13;0.75;;;;;;;;;;5080140;28;20033;-83
2023/05/05 14:07:46;;;;;;;2.30;0.90;;;;;;;;;;5076951;28;20025;-84
2023/05/05 14:10:12;;;;;;;2.03;0.80;;;;;;;;;;5073996;28;20051;-83
2023/05/05 14:12:37;;;;;;;1.65;1.08;;;;;;;;;;5078482;28;20106;-82
2023/05/05 14:15:03;;;;;;;1.02;0.60;;;;;;;;;;5075165;28;20100;-82
2023/05/05 14:17:29;;;;;;;1.55;0.93;;;;;;;;;;5075898;28;20067;-84
2023/05/05 14:19:54;;;;;;;1.35;0.90;;;;;;;;;;5079613;28;20032;-85
2023/05/05 14:22:19;;;;;;;1.55;0.95;;;;;;;;;;5081916;28;20472;-85
2023/05/05 14:24:45;;;;;;;1.15;1.02;;;;;;;;;;5083237;28;20031;-84
2023/05/05 14:27:10;;;;;;;1.83;1.17;;;;;;;;;;5081278;28;20088;-84
2023/05/05 14:29:36;;;;;;;1.23;1.00;;;;;;;;;;5086941;28;20435;-84
2023/05/05 14:32:01;;;;;;;1.23;1.10;;;;;;;;;;5084090;28;20063;-83
2023/05/05 14:34:27;;;;;;;1.15;0.82;;;;;;;;;;5082836;28;20079;-82
2023/05/05 14:36:52;;;;;;;4.80;1.23;;;;;;;;;;5085436;28;20020;-84
2023/05/05 14:39:17;;;;;;;2.13;1.13;;;;;;;;;;5080823;28;20020;-84
2023/05/05 14:41:43;;;;;;;0.85;0.70;;;;;;;;;;5077614;28;20027;-85
2023/05/05 14:44:08;;;;;;;2.00;1.13;;;;;;;;;;5079775;28;20081;-86
2023/05/05 14:46:34;;;;;;;1.35;1.00;;;;;;;;;;5080987;28;20027;-84
2023/05/05 14:48:59;;;;;;;2.05;1.35;;;;;;;;;;5075275;28;20032;-83
2023/05/05 14:51:25;;;;;;;1.77;0.90;;;;;;;;;;5079630;28;20028;-84
2023/05/05 14:53:50;;;;;;;1.50;1.02;;;;;;;;;;5078531;28;20163;-85
2023/05/05 14:56:16;;;;;;;1.60;1.25;;;;;;;;;;5086901;28;20028;-86
2023/05/05 14:58:42;;;;;;;1.75;1.08;;;;;;;;;;5077774;28;20024;-84
2023/05/05 15:01:07;;;;;;;1.80;1.25;;;;;;;;;;5082578;28;20032;-84